Crane Gaia — 3FXX2 — position and weather

sailwx.info

Track history (hours):
 
Tides and Currents Weather Stations Pressure Air Temp Water Temp Dewpoint Dewpoint Depression Visibility Wind Speed Wind Dir Waves Ship Positions

Crane Gaia

Last reported at 2018-May-15 11:26 UTC. Time now 2018-May-23 11:13 UTC.
Position N 35°28' E 129°25'.

Length 115 m; draft 5.1 m.

Type: Tanker. MMSI: 352461000.

Date/timePositionNaut miles runAvg speedWind from/ knotsBaromVisibWave heightAir tempDewpointWater temp
2018-May-15 11:26N 35°28' E 129°25'0 0.0
2018-May-15 07:26N 35°28' E 129°25'0 0.0
2018-May-15 06:56N 35°28' E 129°25'0 0.1
2018-May-15 06:30N 35°28' E 129°25'0 0.0
2018-May-15 05:56N 35°28' E 129°25'0 0.1
2018-May-15 05:20N 35°28' E 129°25'0 0.0
2018-May-15 04:59N 35°28' E 129°25'0 0.0
2018-May-15 04:30N 35°28' E 129°25'0 0.0
2018-May-15 03:58N 35°28' E 129°25'0 0.0
2018-May-15 03:30N 35°28' E 129°25'0 0.0
2018-May-15 02:58N 35°28' E 129°25'0 0.0
2018-May-15 02:23N 35°28' E 129°25'0 0.0
2018-May-15 02:00N 35°28' E 129°25'0 0.1
2018-May-15 01:28N 35°28' E 129°25'0 0.3
2018-May-15 01:00N 35°28' E 129°25'4 6.8
2018-May-15 00:28N 35°26' E 129°29'3 6.7
2018-May-15 00:00N 35°23' E 129°29'1912.3
2018-May-14 22:25N 35°04' E 129°25'613.2
2018-May-14 22:00N 34°59' E 129°22'713.3
2018-May-14 21:30N 34°53' E 129°18'713.7
2018-May-14 20:59N 34°48' E 129°13'1613.2
2018-May-14 19:45N 34°34' E 129°03'312.9
2018-May-14 19:30N 34°31' E 129°00'712.6
2018-May-14 18:59N 34°27' E 128°54'612.4
2018-May-14 18:30N 34°25' E 128°47'910.7
2018-May-14 17:42N 34°19' E 128°40'211.0
2018-May-14 17:28N 34°17' E 128°38'1711.3
2018-May-14 15:56N 34°09' E 128°19'511.4
2018-May-14 15:30N 34°07' E 128°14'5 9.1
2018-May-14 14:56N 34°04' E 128°09'0 0.8
2018-May-14 14:26N 34°04' E 128°08'0 0.8
2018-May-14 13:56N 34°04' E 128°08'1 0.9
2018-May-14 13:20N 34°04' E 128°07'0 1.0
2018-May-14 12:56N 34°04' E 128°07'1 0.9
2018-May-14 12:20N 34°03' E 128°06'0 0.8
2018-May-14 11:44N 34°03' E 128°06'0 0.6
2018-May-14 11:29N 34°03' E 128°06'0 0.6
2018-May-14 10:53N 34°03' E 128°05'0 0.5
2018-May-14 10:26N 34°02' E 128°05'0 0.4
2018-May-14 09:56N 34°02' E 128°05'0 0.4
2018-May-14 09:26N 34°02' E 128°05'1 0.5
2018-May-14 08:14N 34°02' E 128°04'0 0.6
2018-May-14 07:56N 34°01' E 128°04'22912.7
2018-May-13 13:57N 31°50' E 124°20'614.3
2018-May-13 13:30N 31°47' E 124°14'1513.7
2018-May-13 12:23N 31°38' E 123°60'513.3
2018-May-13 12:00N 31°35' E 123°55'612.9
2018-May-13 11:30N 31°31' E 123°48'712.8
2018-May-13 10:58N 31°27' E 123°42'612.3
2018-May-13 10:28N 31°24' E 123°36'612.7
2018-May-13 10:01N 31°20' E 123°30'2212.6
2018-May-13 08:14N 31°08' E 123°09'312.7
2018-May-13 08:01N 31°06' E 123°06'1513.2
2018-May-13 06:50N 30°57' E 122°52'613.9
2018-May-13 06:26N 30°55' E 122°46'714.3
2018-May-13 05:57N 30°53' E 122°38'715.0
2018-May-13 05:29N 30°51' E 122°30'815.7
2018-May-13 05:00N 30°49' E 122°21'713.2
2018-May-13 04:31N 30°44' E 122°17'1313.4
2018-May-13 03:34N 30°32' E 122°11'115.0
2018-May-13 03:30N 30°32' E 122°10'714.2
2018-May-13 02:59N 30°30' E 122°02'19 0.6
2018-May-11 18:06N 30°19' E 121°44'1 4.1
2018-May-11 17:56N 30°20' E 121°44'3410.1
2018-May-11 14:34N 30°41' E 122°15'111.8
2018-May-11 14:28N 30°42' E 122°15'511.3
2018-May-11 14:00N 30°47' E 122°17'6 9.6
2018-May-11 13:24N 30°51' E 122°22'24713.2
2018-May-10 18:46N 32°58' E 126°31'313.6
2018-May-10 18:30N 32°60' E 126°35'713.4
2018-May-10 18:00N 33°03' E 126°42'713.7
2018-May-10 17:30N 33°07' E 126°49'1413.7
2018-May-10 16:28N 33°15' E 127°03'3013.3
2018-May-10 14:12N 33°33' E 127°32'313.1
2018-May-10 14:00N 33°35' E 127°34'713.0
2018-May-10 13:29N 33°39' E 127°40'612.9
2018-May-10 13:00N 33°43' E 127°46'712.8
2018-May-10 12:29N 33°47' E 127°52'712.8
2018-May-10 11:56N 33°51' E 127°59'512.8
2018-May-10 11:30N 33°55' E 128°04'712.9
2018-May-10 10:59N 33°59' E 128°11'612.7
2018-May-10 10:29N 34°02' E 128°17'612.8
2018-May-10 10:00N 34°06' E 128°23'712.8
2018-May-10 09:30N 34°10' E 128°29'813.0
2018-May-10 08:53N 34°15' E 128°37'613.1
2018-May-10 08:27N 34°18' E 128°42'  
2018-May-05 18:04N 35°35' E 129°56'213.9
2018-May-05 17:56N 35°34' E 129°54'1613.1
2018-May-05 16:43N 35°25' E 129°38'314.1
2018-May-05 16:29N 35°24' E 129°34'713.9
2018-May-05 15:58N 35°24' E 129°25'  
Track history (hours):
 
Tides and Currents Weather Stations Pressure Air Temp Water Temp Dewpoint Dewpoint Depression Visibility Wind Speed Wind Dir Waves Ship Positions

Crane Gaia

Last reported at 2018-May-15 11:26 UTC. Time now 2018-May-23 11:13 UTC.
Position N 35°28' E 129°25'.

Length 115 m; draft 5.1 m.

Type: Tanker. MMSI: 352461000.

Date/timePositionNaut miles runAvg speedWind from/ knotsBaromVisibWave heightAir tempDewpointWater temp
2018-May-15 11:26N 35°28' E 129°25'0 0.0
2018-May-15 07:26N 35°28' E 129°25'0 0.0
2018-May-15 06:56N 35°28' E 129°25'0 0.1
2018-May-15 06:30N 35°28' E 129°25'0 0.0
2018-May-15 05:56N 35°28' E 129°25'0 0.1
2018-May-15 05:20N 35°28' E 129°25'0 0.0
2018-May-15 04:59N 35°28' E 129°25'0 0.0
2018-May-15 04:30N 35°28' E 129°25'0 0.0
2018-May-15 03:58N 35°28' E 129°25'0 0.0
2018-May-15 03:30N 35°28' E 129°25'0 0.0
2018-May-15 02:58N 35°28' E 129°25'0 0.0
2018-May-15 02:23N 35°28' E 129°25'0 0.0
2018-May-15 02:00N 35°28' E 129°25'0 0.1
2018-May-15 01:28N 35°28' E 129°25'0 0.3
2018-May-15 01:00N 35°28' E 129°25'4 6.8
2018-May-15 00:28N 35°26' E 129°29'3 6.7
2018-May-15 00:00N 35°23' E 129°29'1912.3
2018-May-14 22:25N 35°04' E 129°25'613.2
2018-May-14 22:00N 34°59' E 129°22'713.3
2018-May-14 21:30N 34°53' E 129°18'713.7
2018-May-14 20:59N 34°48' E 129°13'1613.2
2018-May-14 19:45N 34°34' E 129°03'312.9
2018-May-14 19:30N 34°31' E 129°00'712.6
2018-May-14 18:59N 34°27' E 128°54'612.4
2018-May-14 18:30N 34°25' E 128°47'910.7
2018-May-14 17:42N 34°19' E 128°40'211.0
2018-May-14 17:28N 34°17' E 128°38'1711.3
2018-May-14 15:56N 34°09' E 128°19'511.4
2018-May-14 15:30N 34°07' E 128°14'5 9.1
2018-May-14 14:56N 34°04' E 128°09'0 0.8
2018-May-14 14:26N 34°04' E 128°08'0 0.8
2018-May-14 13:56N 34°04' E 128°08'1 0.9
2018-May-14 13:20N 34°04' E 128°07'0 1.0
2018-May-14 12:56N 34°04' E 128°07'1 0.9
2018-May-14 12:20N 34°03' E 128°06'0 0.8
2018-May-14 11:44N 34°03' E 128°06'0 0.6
2018-May-14 11:29N 34°03' E 128°06'0 0.6
2018-May-14 10:53N 34°03' E 128°05'0 0.5
2018-May-14 10:26N 34°02' E 128°05'0 0.4
2018-May-14 09:56N 34°02' E 128°05'0 0.4
2018-May-14 09:26N 34°02' E 128°05'1 0.5
2018-May-14 08:14N 34°02' E 128°04'0 0.6
2018-May-14 07:56N 34°01' E 128°04'22912.7
2018-May-13 13:57N 31°50' E 124°20'614.3
2018-May-13 13:30N 31°47' E 124°14'1513.7
2018-May-13 12:23N 31°38' E 123°60'513.3
2018-May-13 12:00N 31°35' E 123°55'612.9
2018-May-13 11:30N 31°31' E 123°48'712.8
2018-May-13 10:58N 31°27' E 123°42'612.3
2018-May-13 10:28N 31°24' E 123°36'612.7
2018-May-13 10:01N 31°20' E 123°30'2212.6
2018-May-13 08:14N 31°08' E 123°09'312.7
2018-May-13 08:01N 31°06' E 123°06'1513.2
2018-May-13 06:50N 30°57' E 122°52'613.9
2018-May-13 06:26N 30°55' E 122°46'714.3
2018-May-13 05:57N 30°53' E 122°38'715.0
2018-May-13 05:29N 30°51' E 122°30'815.7
2018-May-13 05:00N 30°49' E 122°21'713.2
2018-May-13 04:31N 30°44' E 122°17'1313.4
2018-May-13 03:34N 30°32' E 122°11'115.0
2018-May-13 03:30N 30°32' E 122°10'714.2
2018-May-13 02:59N 30°30' E 122°02'19 0.6
2018-May-11 18:06N 30°19' E 121°44'1 4.1
2018-May-11 17:56N 30°20' E 121°44'3410.1
2018-May-11 14:34N 30°41' E 122°15'111.8
2018-May-11 14:28N 30°42' E 122°15'511.3
2018-May-11 14:00N 30°47' E 122°17'6 9.6
2018-May-11 13:24N 30°51' E 122°22'24713.2
2018-May-10 18:46N 32°58' E 126°31'313.6
2018-May-10 18:30N 32°60' E 126°35'713.4
2018-May-10 18:00N 33°03' E 126°42'713.7
2018-May-10 17:30N 33°07' E 126°49'1413.7
2018-May-10 16:28N 33°15' E 127°03'3013.3
2018-May-10 14:12N 33°33' E 127°32'313.1
2018-May-10 14:00N 33°35' E 127°34'713.0
2018-May-10 13:29N 33°39' E 127°40'612.9
2018-May-10 13:00N 33°43' E 127°46'712.8
2018-May-10 12:29N 33°47' E 127°52'712.8
2018-May-10 11:56N 33°51' E 127°59'512.8
2018-May-10 11:30N 33°55' E 128°04'712.9
2018-May-10 10:59N 33°59' E 128°11'612.7
2018-May-10 10:29N 34°02' E 128°17'612.8
2018-May-10 10:00N 34°06' E 128°23'712.8
2018-May-10 09:30N 34°10' E 128°29'813.0
2018-May-10 08:53N 34°15' E 128°37'613.1
2018-May-10 08:27N 34°18' E 128°42'  
2018-May-05 18:04N 35°35' E 129°56'213.9
2018-May-05 17:56N 35°34' E 129°54'1613.1
2018-May-05 16:43N 35°25' E 129°38'314.1
2018-May-05 16:29N 35°24' E 129°34'713.9
2018-May-05 15:58N 35°24' E 129°25'  

Dump ship's entire track history